Time;durP1;ratioP1;P1;durP2;ratioP2;P2;SDS_P1;SDS_P2;PMS_P1;PMS_P2;Temp;Humidity;BMP_temperature;BMP_pressure;BME280_temperature;BME280_humidity;BME280_pressure;Samples;Min_cycle;Max_cycle;Signal;HPM_P1;HPM_P2
2022/09/05 05:59:44;;;;;;;5.07;4.20;;;;;;;;;;10649522;27;20858;-84
2022/09/05 06:05:04;;;;;;;5.97;4.68;;;;;;;;;;10636361;28;20066;-85
2022/09/05 06:10:17;;;;;;;5.57;4.63;;;;;;;;;;10636856;27;20024;-85
2022/09/05 06:15:24;;;;;;;4.57;4.03;;;;;;;;;;10641814;27;20003;-86
2022/09/05 06:20:33;;;;;;;5.03;4.53;;;;;;;;;;10633997;27;20032;-85
2022/09/05 06:25:51;;;;;;;4.45;4.05;;;;;;;;;;10638760;27;20019;-85
2022/09/05 06:31:01;;;;;;;6.07;5.40;;;;;;;;;;10636598;27;20023;-85
2022/09/05 06:36:02;;;;;;;;;;;;;;;;;;10639583;27;20019;-83
2022/09/05 06:41:18;;;;;;;7.57;4.80;;;;;;;;;;10639674;28;19925;-85
2022/09/05 06:46:40;;;;;;;5.63;4.32;;;;;;;;;;10640431;27;20028;-82
2022/09/05 06:52:00;;;;;;;4.95;4.15;;;;;;;;;;10646440;27;20045;-82
2022/09/05 06:57:04;;;;;;;;;;;;;;;;;;10653664;27;20046;-81
2022/09/05 07:02:18;;;;;;;6.78;3.78;;;;;;;;;;10651195;28;19907;-79
2022/09/05 07:07:33;;;;;;;5.20;4.50;;;;;;;;;;10650541;27;20038;-84
2022/09/05 07:24:08;;;;;;;;;;;;;;;;;;10506570;28;20028;-83
2022/09/05 07:29:13;;;;;;;6.35;3.88;;;;;;;;;;10708226;22;19932;-85
2022/09/05 07:34:23;;;;;;;11.20;4.18;;;;;;;;;;10453871;28;20029;-84
2022/09/05 07:39:46;;;;;;;7.65;4.05;;;;;;;;;;10472078;28;20037;-84
2022/09/05 07:44:50;;;;;;;7.80;4.32;;;;;;;;;;10467522;28;20111;-85
2022/09/05 07:49:52;;;;;;;5.63;3.70;;;;;;;;;;10492306;28;20017;-85
2022/09/05 07:55:02;;;;;;;3.80;3.28;;;;;;;;;;10472948;28;20040;-84
2022/09/05 08:00:09;;;;;;;5.25;4.32;;;;;;;;;;10489706;28;20048;-85
2022/09/05 08:05:15;;;;;;;5.32;3.60;;;;;;;;;;10470910;28;20025;-84
2022/09/05 08:10:41;;;;;;;8.85;4.10;;;;;;;;;;10470762;28;20025;-85
2022/09/05 08:15:47;;;;;;;7.57;3.80;;;;;;;;;;10364702;28;20073;-84
2022/09/05 08:21:00;;;;;;;10.02;3.95;;;;;;;;;;10446517;28;20041;-85
2022/09/05 08:26:01;;;;;;;;;;;;;;;;;;10453385;28;20153;-84
2022/09/05 08:31:31;;;;;;;6.28;4.38;;;;;;;;;;10466938;28;20298;-85
2022/09/05 08:36:41;;;;;;;10.50;4.70;;;;;;;;;;10455963;28;20116;-85
2022/09/05 08:41:42;;;;;;;10.57;4.63;;;;;;;;;;10454216;28;20040;-85
2022/09/05 08:46:56;;;;;;;9.88;4.63;;;;;;;;;;10453553;28;20032;-85
2022/09/05 08:52:11;;;;;;;13.23;11.68;;;;;;;;;;10461063;28;20033;-82
2022/09/05 08:57:19;;;;;;;10.00;6.88;;;;;;;;;;10454061;28;20115;-84
2022/09/05 09:02:30;;;;;;;6.22;4.70;;;;;;;;;;10453515;28;20047;-84
2022/09/05 09:07:34;;;;;;;8.07;5.82;;;;;;;;;;10451220;28;20025;-85
2022/09/05 09:12:57;;;;;;;6.63;4.05;;;;;;;;;;10470787;28;20043;-84
2022/09/05 09:17:59;;;;;;;7.90;4.63;;;;;;;;;;10454133;28;20135;-84
2022/09/05 09:23:01;;;;;;;5.28;4.18;;;;;;;;;;10452120;28;20119;-84
2022/09/05 09:28:05;;;;;;;5.90;3.22;;;;;;;;;;10451999;28;20025;-84
2022/09/05 09:33:07;;;;;;;7.35;3.50;;;;;;;;;;10452630;28;20119;-85
2022/09/05 09:38:08;;;;;;;7.40;2.53;;;;;;;;;;10458634;28;20009;-84
2022/09/05 09:43:26;;;;;;;8.98;3.30;;;;;;;;;;10457786;28;20025;-85
2022/09/05 09:48:27;;;;;;;8.93;6.50;;;;;;;;;;10459271;28;20119;-84
2022/09/05 09:53:39;;;;;;;4.18;2.88;;;;;;;;;;10455942;28;20369;-84
2022/09/05 09:58:57;;;;;;;6.75;3.28;;;;;;;;;;10455745;28;20017;-84
2022/09/05 10:04:24;;;;;;;7.85;3.63;;;;;;;;;;10455043;28;20032;-85
2022/09/05 10:09:34;;;;;;;8.27;2.92;;;;;;;;;;10447594;28;20116;-84
2022/09/05 10:15:14;;;;;;;6.88;3.75;;;;;;;;;;10468847;28;20032;-84
2022/09/05 10:20:39;;;;;;;14.20;4.00;;;;;;;;;;10401922;28;20033;-85
2022/09/05 10:25:52;;;;;;;5.43;2.80;;;;;;;;;;10466336;28;20055;-85
2022/09/05 10:31:11;;;;;;;5.10;3.20;;;;;;;;;;10446661;28;20029;-85
2022/09/05 10:36:16;;;;;;;5.73;3.70;;;;;;;;;;10450078;28;20029;-84
2022/09/05 10:41:18;;;;;;;5.50;3.65;;;;;;;;;;10471446;28;20294;-81
2022/09/05 10:46:44;;;;;;;5.72;3.45;;;;;;;;;;10493907;28;20032;-84
2022/09/05 10:51:48;;;;;;;9.88;2.70;;;;;;;;;;10483760;28;20036;-86
2022/09/05 10:56:56;;;;;;;17.27;15.52;;;;;;;;;;10480517;28;20029;-85
2022/09/05 11:02:06;;;;;;;6.00;4.47;;;;;;;;;;10471780;28;20025;-86
2022/09/05 11:07:26;;;;;;;3.40;3.10;;;;;;;;;;10487946;28;20020;-86
2022/09/05 11:12:46;;;;;;;3.17;2.67;;;;;;;;;;10480054;28;20062;-85
2022/09/05 11:17:53;;;;;;;3.78;2.58;;;;;;;;;;10457060;28;20044;-87
2022/09/05 11:23:22;;;;;;;12.13;6.47;;;;;;;;;;10477763;28;20056;-86
2022/09/05 11:28:30;;;;;;;7.25;2.70;;;;;;;;;;10488857;28;20067;-85
2022/09/05 11:33:44;;;;;;;8.25;3.50;;;;;;;;;;10485634;28;20029;-86
2022/09/05 11:38:48;;;;;;;9.55;4.13;;;;;;;;;;10471454;28;20036;-86
2022/09/05 11:43:53;;;;;;;3.20;1.95;;;;;;;;;;10487271;28;20471;-85
2022/09/05 11:49:14;;;;;;;3.70;2.38;;;;;;;;;;10482058;28;20127;-86
2022/09/05 11:54:33;;;;;;;7.10;2.88;;;;;;;;;;10492009;28;20029;-87
2022/09/05 11:59:59;;;;;;;3.30;2.20;;;;;;;;;;10453255;28;20047;-87
2022/09/05 12:05:10;;;;;;;5.75;2.60;;;;;;;;;;10465988;28;20032;-86
2022/09/05 12:10:22;;;;;;;4.28;3.42;;;;;;;;;;10450130;28;20025;-85
2022/09/05 12:15:33;;;;;;;3.92;2.70;;;;;;;;;;10499845;28;20061;-87
2022/09/05 12:20:46;;;;;;;5.53;3.10;;;;;;;;;;10482244;28;20040;-84
2022/09/05 12:26:03;;;;;;;3.22;2.40;;;;;;;;;;10470693;28;20036;-88
2022/09/05 12:31:17;;;;;;;3.10;2.60;;;;;;;;;;10467439;28;20455;-87
2022/09/05 12:36:33;;;;;;;2.53;1.80;;;;;;;;;;10447088;28;20139;-84
2022/09/05 12:41:44;;;;;;;9.07;2.42;;;;;;;;;;10449346;28;20024;-84
2022/09/05 12:46:50;;;;;;;17.85;13.90;;;;;;;;;;10473280;28;20021;-86
2022/09/05 12:51:58;;;;;;;15.18;9.80;;;;;;;;;;10477443;28;20031;-86
2022/09/05 12:57:03;;;;;;;3.93;2.03;;;;;;;;;;10479697;28;20506;-85
2022/09/05 13:02:06;;;;;;;8.38;3.00;;;;;;;;;;10452392;28;20028;-85
2022/09/05 13:07:10;;;;;;;5.75;2.45;;;;;;;;;;10449336;28;20029;-86
2022/09/05 13:12:46;;;;;;;11.90;5.25;;;;;;;;;;10446020;28;20078;-86
2022/09/05 13:17:54;;;;;;;6.65;2.00;;;;;;;;;;10338325;28;20034;-84
2022/09/05 13:22:56;;;;;;;6.60;2.72;;;;;;;;;;10447034;28;20048;-86
2022/09/05 13:28:03;;;;;;;5.97;2.38;;;;;;;;;;10451209;28;20036;-85
2022/09/05 13:33:15;;;;;;;2.20;1.60;;;;;;;;;;10454126;28;20136;-85
2022/09/05 13:38:23;;;;;;;8.70;5.82;;;;;;;;;;10453093;28;20028;-85
2022/09/05 13:43:26;;;;;;;9.25;2.75;;;;;;;;;;10454316;28;20027;-85
2022/09/05 13:48:37;;;;;;;5.95;2.30;;;;;;;;;;10451307;28;20036;-86
2022/09/05 13:53:52;;;;;;;4.65;2.30;;;;;;;;;;10449325;28;20071;-84
2022/09/05 13:59:04;;;;;;;3.30;2.65;;;;;;;;;;10452111;28;20115;-85
2022/09/05 14:04:27;;;;;;;2.90;2.60;;;;;;;;;;10450257;28;20045;-86
2022/09/05 14:09:28;;;;;;;3.40;1.85;;;;;;;;;;10445112;28;20060;-86
2022/09/05 14:14:36;;;;;;;3.75;2.00;;;;;;;;;;10446346;28;20025;-86
2022/09/05 14:25:36;;;;;;;2.60;1.55;;;;;;;;;;10278291;28;20093;-86
2022/09/05 14:30:45;;;;;;;2.35;1.90;;;;;;;;;;10448958;28;20471;-86
2022/09/05 14:35:52;;;;;;;4.75;3.25;;;;;;;;;;10460826;28;20067;-85
2022/09/05 14:41:12;;;;;;;2.42;1.70;;;;;;;;;;10468562;28;20017;-85
2022/09/05 14:46:31;;;;;;;1.98;1.60;;;;;;;;;;10458595;28;20482;-86
2022/09/05 14:51:38;;;;;;;3.17;1.90;;;;;;;;;;10454344;28;20060;-86
2022/09/05 14:56:43;;;;;;;4.00;2.05;;;;;;;;;;10453977;28;20053;-86
2022/09/05 15:01:56;;;;;;;3.42;2.28;;;;;;;;;;10453218;28;20025;-86
2022/09/05 15:07:03;;;;;;;2.58;2.38;;;;;;;;;;10471657;28;20021;-84
2022/09/05 15:12:16;;;;;;;3.03;1.70;;;;;;;;;;10460983;28;20029;-84
2022/09/05 15:17:27;;;;;;;4.10;1.92;;;;;;;;;;10482356;28;20021;-84
2022/09/05 15:22:29;;;;;;;3.30;2.22;;;;;;;;;;10466303;28;20039;-84
2022/09/05 15:27:33;;;;;;;6.43;2.15;;;;;;;;;;10459291;28;20028;-85
2022/09/05 15:32:41;;;;;;;2.63;1.75;;;;;;;;;;10475911;28;20083;-84
2022/09/05 15:43:58;;;;;;;7.45;4.88;;;;;;;;;;10350500;28;20030;-83
2022/09/05 15:49:02;;;;;;;3.05;1.80;;;;;;;;;;10352780;28;20049;-85
2022/09/05 15:54:24;;;;;;;7.55;6.68;;;;;;;;;;10442854;28;20029;-86
2022/09/05 15:59:28;;;;;;;3.50;2.25;;;;;;;;;;10458584;28;20025;-83
2022/09/05 16:04:53;;;;;;;2.33;2.00;;;;;;;;;;10458044;28;20471;-83
2022/09/05 16:09:55;;;;;;;3.83;2.35;;;;;;;;;;10458914;28;20125;-83
2022/09/05 16:14:58;;;;;;;5.82;2.78;;;;;;;;;;10462617;28;20032;-86
2022/09/05 16:20:23;;;;;;;25.67;23.30;;;;;;;;;;10455590;28;20398;-83
2022/09/05 16:25:28;;;;;;;8.32;3.83;;;;;;;;;;10489840;28;20039;-84
